28°F Temp
19°F Dewpoint
% Humidity
Temperature
MPH
0 KM/H
KTS
Calm
Due North

Wind Speed
Partly Cloudy
Conditions
Pressure 1026.5 (hPa) - 30.29 (in)
Visibility 10.0 (mi) - 16.1 (km)

Current Conditions
KCLE
Location 38(mi)
Metar :KCLE 171051Z 00000KT 10SM FEW028 M02/M07 A3029 RMK AO2 SLP265 T10171072
Sun 17th March 05:51 am

Airport
  Metar Aviation API Data Provided by https://www.checkwx.com/ PHP scripts by weather34.com ©2019